Time;durP1;ratioP1;P1;durP2;ratioP2;P2;SDS_P1;SDS_P2;PMS_P1;PMS_P2;Temp;Humidity;BMP_temperature;BMP_pressure;BME280_temperature;BME280_humidity;BME280_pressure;Samples;Min_cycle;Max_cycle;Signal;HPM_P1;HPM_P2
2023/12/29 00:02:08;;;;;;;3.63;2.23;;;;;;;;;;5088573;28;20307;-32
2023/12/29 00:04:35;;;;;;;3.27;2.00;;;;;;;;;;5078456;28;20250;-34
2023/12/29 00:07:03;;;;;;;2.53;2.03;;;;;;;;;;5088024;28;20220;-36
2023/12/29 00:09:37;;;;;;;3.80;2.30;;;;;;;;;;5089132;28;20582;-32
2023/12/29 00:12:05;;;;;;;3.00;2.07;;;;;;;;;;5084105;28;20208;-35
2023/12/29 00:14:32;;;;;;;1.70;1.60;;;;;;;;;;5074834;28;20243;-40
2023/12/29 00:17:00;;;;;;;1.73;1.60;;;;;;;;;;5082222;28;20728;-35
2023/12/29 00:19:28;;;;;;;2.83;1.77;;;;;;;;;;5088409;28;20239;-35
2023/12/29 00:21:55;;;;;;;2.03;1.63;;;;;;;;;;5089118;28;20213;-36
2023/12/29 00:24:23;;;;;;;1.40;1.30;;;;;;;;;;5076061;28;20336;-34
2023/12/29 00:26:50;;;;;;;1.73;1.50;;;;;;;;;;5082594;28;20208;-35
2023/12/29 00:29:18;;;;;;;1.40;1.30;;;;;;;;;;5089164;28;20256;-33
2023/12/29 00:31:45;;;;;;;2.23;1.50;;;;;;;;;;5074719;28;20231;-32
2023/12/29 00:34:12;;;;;;;2.43;1.83;;;;;;;;;;5086871;28;20313;-36
2023/12/29 00:36:40;;;;;;;2.10;1.70;;;;;;;;;;5088521;28;20228;-33
2023/12/29 00:39:08;;;;;;;1.97;1.80;;;;;;;;;;5089065;28;20235;-36
2023/12/29 00:41:35;;;;;;;3.13;1.67;;;;;;;;;;5084487;28;20291;-36
2023/12/29 00:44:02;;;;;;;1.57;1.47;;;;;;;;;;5083654;28;20224;-33
2023/12/29 00:46:29;;;;;;;1.60;1.50;;;;;;;;;;5079569;28;20225;-34
2023/12/29 00:48:56;;;;;;;1.90;1.50;;;;;;;;;;5071924;28;20225;-36
2023/12/29 00:51:24;;;;;;;1.73;1.53;;;;;;;;;;5080331;28;20212;-32
2023/12/29 00:53:52;;;;;;;1.60;1.50;;;;;;;;;;5075107;28;20204;-37
2023/12/29 00:56:19;;;;;;;1.73;1.50;;;;;;;;;;5082297;28;20236;-35
2023/12/29 00:58:47;;;;;;;2.30;1.70;;;;;;;;;;5086847;28;20201;-34
2023/12/29 01:01:14;;;;;;;2.27;1.80;;;;;;;;;;5088583;28;20608;-34
2023/12/29 01:03:41;;;;;;;1.60;1.50;;;;;;;;;;5084312;28;20323;-31
2023/12/29 01:06:08;;;;;;;2.03;1.60;;;;;;;;;;5084128;28;20284;-34
2023/12/29 01:08:35;;;;;;;1.53;1.43;;;;;;;;;;5087939;28;20857;-34
2023/12/29 01:11:04;;;;;;;2.47;2.00;;;;;;;;;;5083734;28;20201;-35
2023/12/29 01:13:31;;;;;;;2.20;1.73;;;;;;;;;;5073604;28;20299;-36
2023/12/29 01:15:58;;;;;;;1.63;1.53;;;;;;;;;;5077050;28;20225;-32
2023/12/29 01:18:26;;;;;;;1.40;1.30;;;;;;;;;;5085121;28;20272;-41
2023/12/29 01:20:53;;;;;;;2.03;1.83;;;;;;;;;;5088867;28;20363;-33
2023/12/29 01:23:20;;;;;;;3.03;1.70;;;;;;;;;;5083278;28;20671;-32
2023/12/29 01:25:47;;;;;;;2.00;1.90;;;;;;;;;;5090968;28;20256;-33
2023/12/29 01:28:16;;;;;;;2.90;1.60;;;;;;;;;;5092178;28;20295;-39
2023/12/29 01:30:43;;;;;;;1.90;1.70;;;;;;;;;;5083665;28;20219;-34
2023/12/29 01:33:10;;;;;;;2.10;1.90;;;;;;;;;;5086846;28;20294;-34
2023/12/29 01:35:37;;;;;;;4.67;2.07;;;;;;;;;;5092177;28;20328;-33
2023/12/29 01:38:05;;;;;;;2.23;1.93;;;;;;;;;;5092522;28;20231;-37
2023/12/29 01:40:32;;;;;;;2.40;2.00;;;;;;;;;;5082967;28;20290;-36
2023/12/29 01:42:59;;;;;;;2.60;2.00;;;;;;;;;;5090745;28;20228;-31
2023/12/29 01:45:28;;;;;;;1.90;1.80;;;;;;;;;;5086737;28;20232;-33
2023/12/29 01:47:55;;;;;;;2.90;1.70;;;;;;;;;;5092426;28;20212;-35
2023/12/29 01:50:23;;;;;;;1.80;1.70;;;;;;;;;;5092591;28;20316;-36
2023/12/29 01:52:51;;;;;;;2.50;1.87;;;;;;;;;;5087840;28;20215;-36
2023/12/29 01:55:20;;;;;;;1.97;1.80;;;;;;;;;;5086413;28;20559;-36
2023/12/29 01:57:48;;;;;;;3.07;2.07;;;;;;;;;;5092165;28;20576;-36
2023/12/29 02:00:17;;;;;;;2.10;1.90;;;;;;;;;;5088506;28;20257;-34
2023/12/29 02:02:47;;;;;;;1.70;1.57;;;;;;;;;;5089830;28;20914;-34
2023/12/29 02:05:15;;;;;;;1.83;1.73;;;;;;;;;;5093226;28;20659;-32
2023/12/29 02:07:43;;;;;;;2.20;2.00;;;;;;;;;;5092628;28;20216;-33
2023/12/29 02:10:13;;;;;;;3.10;1.90;;;;;;;;;;5089256;28;20298;-32
2023/12/29 02:12:41;;;;;;;2.10;1.90;;;;;;;;;;5089531;28;20215;-34
2023/12/29 02:15:08;;;;;;;2.83;2.13;;;;;;;;;;5083890;28;20293;-36
2023/12/29 02:17:39;;;;;;;2.27;1.90;;;;;;;;;;5084728;28;20216;-38
2023/12/29 02:20:09;;;;;;;1.97;1.83;;;;;;;;;;5091946;28;20220;-36
2023/12/29 02:22:36;;;;;;;2.50;1.87;;;;;;;;;;5087754;28;20209;-33
2023/12/29 02:25:05;;;;;;;2.77;2.10;;;;;;;;;;5085039;28;20221;-37
2023/12/29 02:27:36;;;;;;;2.47;2.27;;;;;;;;;;5090566;28;20295;-36
2023/12/29 02:30:27;;;;;;;2.33;2.13;;;;;;;;;;5091441;28;20441;-37
2023/12/29 02:32:57;;;;;;;2.30;2.10;;;;;;;;;;5082191;28;20291;-33
2023/12/29 02:35:25;;;;;;;1.90;1.80;;;;;;;;;;5087799;28;20312;-33
2023/12/29 02:37:53;;;;;;;3.17;2.20;;;;;;;;;;5091348;28;20200;-37
2023/12/29 02:40:22;;;;;;;2.13;2.00;;;;;;;;;;5085235;28;20255;-32
2023/12/29 02:42:49;;;;;;;2.30;2.03;;;;;;;;;;5089504;28;20288;-30
2023/12/29 02:45:16;;;;;;;2.73;2.00;;;;;;;;;;5087610;28;20260;-32
2023/12/29 02:47:44;;;;;;;2.80;2.30;;;;;;;;;;5090633;28;20300;-32
2023/12/29 02:50:11;;;;;;;2.83;2.20;;;;;;;;;;5091700;28;20298;-36
2023/12/29 02:52:39;;;;;;;2.33;2.13;;;;;;;;;;5085667;28;20236;-35
2023/12/29 02:55:06;;;;;;;2.40;2.20;;;;;;;;;;5080510;28;20280;-35
2023/12/29 02:57:36;;;;;;;2.90;2.27;;;;;;;;;;5080186;28;20267;-34
2023/12/29 03:00:04;;;;;;;3.17;2.30;;;;;;;;;;5090902;28;20281;-40
2023/12/29 03:02:32;;;;;;;3.30;2.20;;;;;;;;;;5084596;28;20209;-34
2023/12/29 03:05:00;;;;;;;5.00;1.93;;;;;;;;;;5086860;28;20292;-30
2023/12/29 03:07:27;;;;;;;4.13;2.13;;;;;;;;;;5091607;28;20208;-38
2023/12/29 03:09:55;;;;;;;1.90;1.80;;;;;;;;;;5085655;28;20216;-36
2023/12/29 03:12:22;;;;;;;3.13;2.00;;;;;;;;;;5084749;28;20278;-32
2023/12/29 03:14:50;;;;;;;2.20;2.00;;;;;;;;;;5082882;28;20308;-32
2023/12/29 03:17:18;;;;;;;2.40;2.20;;;;;;;;;;5089079;28;20296;-34
2023/12/29 03:19:45;;;;;;;2.10;2.00;;;;;;;;;;5093860;28;20296;-35
2023/12/29 03:22:12;;;;;;;2.20;2.10;;;;;;;;;;5094269;28;20216;-35
2023/12/29 03:24:41;;;;;;;3.40;2.13;;;;;;;;;;5085658;28;20279;-32
2023/12/29 03:27:09;;;;;;;2.53;2.00;;;;;;;;;;5089619;28;20239;-37
2023/12/29 03:29:36;;;;;;;2.27;2.07;;;;;;;;;;5093030;28;20315;-35
2023/12/29 03:32:06;;;;;;;2.43;1.93;;;;;;;;;;5093507;28;20207;-38
2023/12/29 03:34:34;;;;;;;2.50;2.27;;;;;;;;;;5087660;28;20235;-36
2023/12/29 03:37:01;;;;;;;1.90;1.80;;;;;;;;;;5090805;28;20221;-37
2023/12/29 03:39:29;;;;;;;2.20;2.10;;;;;;;;;;5090734;28;20213;-37
2023/12/29 03:41:56;;;;;;;4.40;2.30;;;;;;;;;;5086994;28;20231;-38
2023/12/29 03:44:24;;;;;;;4.13;2.33;;;;;;;;;;5081353;28;20220;-40
2023/12/29 03:46:51;;;;;;;2.90;2.33;;;;;;;;;;5088315;28;20219;-37
2023/12/29 03:49:20;;;;;;;3.53;2.10;;;;;;;;;;5090535;28;20258;-33
2023/12/29 03:51:47;;;;;;;4.80;2.50;;;;;;;;;;5088758;28;20227;-37
2023/12/29 03:54:14;;;;;;;3.83;2.40;;;;;;;;;;5087221;28;20355;-37
2023/12/29 03:56:42;;;;;;;2.73;2.10;;;;;;;;;;5086304;28;20304;-35
2023/12/29 03:59:09;;;;;;;3.57;2.47;;;;;;;;;;5089122;28;20209;-34
2023/12/29 04:01:36;;;;;;;2.50;2.10;;;;;;;;;;5090726;28;20211;-39
2023/12/29 04:04:04;;;;;;;2.80;2.13;;;;;;;;;;5083455;28;20229;-35
2023/12/29 04:06:32;;;;;;;2.50;2.17;;;;;;;;;;5082375;28;20205;-39
2023/12/29 04:08:59;;;;;;;2.40;1.80;;;;;;;;;;5081302;28;20207;-33
2023/12/29 04:11:26;;;;;;;2.00;1.80;;;;;;;;;;5089529;28;20284;-37
2023/12/29 04:13:53;;;;;;;2.40;2.20;;;;;;;;;;5080261;28;20205;-34
2023/12/29 04:16:21;;;;;;;2.20;2.00;;;;;;;;;;5078284;28;20300;-34
2023/12/29 04:18:48;;;;;;;2.80;2.27;;;;;;;;;;5086914;28;20208;-34
2023/12/29 04:21:15;;;;;;;2.00;1.80;;;;;;;;;;5089389;28;20261;-31
2023/12/29 04:23:44;;;;;;;1.80;1.70;;;;;;;;;;5079152;28;20205;-35
2023/12/29 04:26:11;;;;;;;1.70;1.60;;;;;;;;;;5088499;28;20209;-34
2023/12/29 04:28:38;;;;;;;2.20;2.00;;;;;;;;;;5089127;28;20295;-36
2023/12/29 04:31:05;;;;;;;1.80;1.60;;;;;;;;;;5086587;28;20230;-39
2023/12/29 04:33:32;;;;;;;2.20;2.00;;;;;;;;;;5085222;28;20544;-32
2023/12/29 04:35:59;;;;;;;2.10;1.87;;;;;;;;;;5089356;28;20232;-31
2023/12/29 04:38:27;;;;;;;1.90;1.80;;;;;;;;;;5090170;28;20206;-39
2023/12/29 04:40:55;;;;;;;2.20;2.00;;;;;;;;;;5082625;28;20327;-30
2023/12/29 04:43:22;;;;;;;1.97;1.70;;;;;;;;;;5090349;28;20254;-32
2023/12/29 04:45:50;;;;;;;3.43;2.00;;;;;;;;;;5080206;28;20263;-36
2023/12/29 04:48:29;;;;;;;3.13;2.13;;;;;;;;;;5086288;28;20297;-32
2023/12/29 04:50:56;;;;;;;2.47;2.27;;;;;;;;;;5090586;28;20266;-34
2023/12/29 04:53:23;;;;;;;1.90;1.80;;;;;;;;;;5084995;28;20233;-33
2023/12/29 04:55:50;;;;;;;2.57;1.90;;;;;;;;;;5077621;28;20359;-28
2023/12/29 04:58:19;;;;;;;3.03;2.20;;;;;;;;;;5088995;28;20205;-35
2023/12/29 05:00:46;;;;;;;2.10;1.90;;;;;;;;;;5088925;28;20299;-33
2023/12/29 05:03:13;;;;;;;3.00;2.17;;;;;;;;;;5080525;28;20251;-38
2023/12/29 05:05:40;;;;;;;3.13;2.03;;;;;;;;;;5084620;28;20591;-30
2023/12/29 05:08:07;;;;;;;2.10;1.90;;;;;;;;;;5089180;28;20200;-31
2023/12/29 05:10:36;;;;;;;2.53;2.30;;;;;;;;;;5082420;28;20282;-35
2023/12/29 05:13:03;;;;;;;2.07;1.87;;;;;;;;;;5088177;28;20211;-34
2023/12/29 05:15:32;;;;;;;2.37;2.10;;;;;;;;;;5089973;28;20250;-37
2023/12/29 05:17:59;;;;;;;1.90;1.70;;;;;;;;;;5084779;28;20205;-34
2023/12/29 05:20:26;;;;;;;3.00;1.97;;;;;;;;;;5089384;28;20211;-36
2023/12/29 05:22:53;;;;;;;2.17;1.87;;;;;;;;;;5088270;28;20209;-30
2023/12/29 05:25:22;;;;;;;2.07;1.63;;;;;;;;;;5080000;28;20255;-32
2023/12/29 05:27:49;;;;;;;1.87;1.77;;;;;;;;;;5089848;28;20272;-30
2023/12/29 05:30:16;;;;;;;2.83;1.70;;;;;;;;;;5091812;28;20242;-36
2023/12/29 05:32:45;;;;;;;1.77;1.67;;;;;;;;;;5090401;28;20204;-34
2023/12/29 05:35:12;;;;;;;2.03;1.90;;;;;;;;;;5084245;28;20300;-37
2023/12/29 05:37:39;;;;;;;2.30;2.10;;;;;;;;;;5091098;28;20235;-33
2023/12/29 05:40:07;;;;;;;1.73;1.60;;;;;;;;;;5090032;28;20199;-36
2023/12/29 05:42:34;;;;;;;2.10;1.60;;;;;;;;;;5080367;28;20207;-31
2023/12/29 05:45:01;;;;;;;2.13;1.80;;;;;;;;;;5081317;28;20298;-37
2023/12/29 05:47:28;;;;;;;1.97;1.87;;;;;;;;;;5087817;28;20231;-40
2023/12/29 05:49:57;;;;;;;5.00;1.93;;;;;;;;;;5090607;28;20228;-36
2023/12/29 05:52:24;;;;;;;4.30;2.63;;;;;;;;;;5089641;28;20220;-33
2023/12/29 05:54:51;;;;;;;5.23;3.10;;;;;;;;;;5084366;28;20236;-33
2023/12/29 05:57:18;;;;;;;3.07;2.13;;;;;;;;;;5089412;28;20207;-35
2023/12/29 05:59:45;;;;;;;3.43;2.17;;;;;;;;;;5088536;28;20209;-36
2023/12/29 06:02:13;;;;;;;4.17;2.10;;;;;;;;;;5089108;28;20212;-34
2023/12/29 06:04:40;;;;;;;1.87;1.77;;;;;;;;;;5084965;28;20220;-37
2023/12/29 06:07:08;;;;;;;2.10;1.90;;;;;;;;;;5088929;28;20219;-37
2023/12/29 06:09:35;;;;;;;2.00;1.90;;;;;;;;;;5089038;28;20205;-32
2023/12/29 06:12:02;;;;;;;1.73;1.63;;;;;;;;;;5080250;28;20213;-34
2023/12/29 06:14:30;;;;;;;1.90;1.80;;;;;;;;;;5077979;28;20262;-37
2023/12/29 06:16:57;;;;;;;2.20;2.10;;;;;;;;;;5094405;28;20208;-35
2023/12/29 06:19:24;;;;;;;2.10;1.90;;;;;;;;;;5093056;28;20226;-33
2023/12/29 06:21:51;;;;;;;2.27;2.07;;;;;;;;;;5093389;28;20657;-33
2023/12/29 06:24:20;;;;;;;3.70;2.10;;;;;;;;;;5083804;28;20222;-33
2023/12/29 06:26:47;;;;;;;1.70;1.60;;;;;;;;;;5084346;28;20239;-34
2023/12/29 06:29:14;;;;;;;2.30;2.10;;;;;;;;;;5092771;28;20205;-34
2023/12/29 06:31:42;;;;;;;1.90;1.80;;;;;;;;;;5092195;28;20256;-37
2023/12/29 06:34:09;;;;;;;1.97;1.87;;;;;;;;;;5086827;28;20232;-33
2023/12/29 06:36:36;;;;;;;2.40;2.20;;;;;;;;;;5087474;28;20208;-34
2023/12/29 06:39:04;;;;;;;3.33;2.53;;;;;;;;;;5091288;28;20205;-36
2023/12/29 06:41:32;;;;;;;4.90;2.90;;;;;;;;;;5086930;28;20209;-31
2023/12/29 06:44:00;;;;;;;5.30;2.87;;;;;;;;;;5090787;28;20320;-32
2023/12/29 06:46:26;;;;;;;3.20;2.60;;;;;;;;;;5087157;28;20196;-35
2023/12/29 06:48:53;;;;;;;2.23;2.03;;;;;;;;;;5088732;28;20208;-34
2023/12/29 06:51:22;;;;;;;3.77;2.40;;;;;;;;;;5091289;28;20216;-37
2023/12/29 06:53:49;;;;;;;2.20;2.00;;;;;;;;;;5090744;28;20204;-37
2023/12/29 06:56:16;;;;;;;2.90;2.27;;;;;;;;;;5081942;28;20279;-35
2023/12/29 06:58:44;;;;;;;3.00;2.10;;;;;;;;;;5090913;28;20258;-35
2023/12/29 07:01:12;;;;;;;2.60;2.40;;;;;;;;;;5094698;28;20197;-32
2023/12/29 07:03:39;;;;;;;3.50;2.60;;;;;;;;;;5086452;28;20284;-35
2023/12/29 07:06:06;;;;;;;2.07;1.87;;;;;;;;;;5086835;28;20250;-33
2023/12/29 07:08:33;;;;;;;2.30;2.10;;;;;;;;;;5093364;28;20215;-31
2023/12/29 07:11:01;;;;;;;2.70;2.00;;;;;;;;;;5094710;28;20228;-38
2023/12/29 07:13:28;;;;;;;2.10;1.90;;;;;;;;;;5089252;28;20207;-36
2023/12/29 07:15:57;;;;;;;2.17;1.70;;;;;;;;;;5091436;28;20736;-35
2023/12/29 07:18:24;;;;;;;2.90;2.00;;;;;;;;;;5094951;28;20308;-38
2023/12/29 07:20:51;;;;;;;2.80;2.13;;;;;;;;;;5094952;28;20535;-33
2023/12/29 07:23:18;;;;;;;2.20;2.00;;;;;;;;;;5093416;28;20197;-33
2023/12/29 07:25:45;;;;;;;2.20;2.00;;;;;;;;;;5091580;28;20243;-32
2023/12/29 07:28:12;;;;;;;2.63;2.40;;;;;;;;;;5095317;28;20205;-29
2023/12/29 07:30:40;;;;;;;2.30;2.10;;;;;;;;;;5094342;28;20220;-36
2023/12/29 07:33:08;;;;;;;2.13;1.90;;;;;;;;;;5092715;28;20222;-33
2023/12/29 07:35:35;;;;;;;4.53;2.60;;;;;;;;;;5094725;28;20247;-37
2023/12/29 07:38:02;;;;;;;3.80;2.97;;;;;;;;;;5095579;28;20232;-36
2023/12/29 07:40:29;;;;;;;2.20;2.00;;;;;;;;;;5086963;28;20189;-37
2023/12/29 07:42:56;;;;;;;3.07;2.60;;;;;;;;;;5092249;28;20236;-34
2023/12/29 07:45:24;;;;;;;2.77;2.57;;;;;;;;;;5091678;28;20236;-35
2023/12/29 07:47:51;;;;;;;2.73;2.40;;;;;;;;;;5095242;28;20200;-32
2023/12/29 07:50:20;;;;;;;2.70;2.50;;;;;;;;;;5095382;28;20200;-33
2023/12/29 07:52:47;;;;;;;5.10;3.13;;;;;;;;;;5086367;28;20296;-37
2023/12/29 07:55:16;;;;;;;5.23;3.20;;;;;;;;;;5094646;28;20343;-37
2023/12/29 07:57:43;;;;;;;3.23;2.90;;;;;;;;;;5095271;28;20200;-36
2023/12/29 08:00:11;;;;;;;2.77;2.53;;;;;;;;;;5093209;28;20212;-33
2023/12/29 08:02:38;;;;;;;3.73;2.60;;;;;;;;;;5087479;28;20197;-32
2023/12/29 08:05:08;;;;;;;2.43;2.07;;;;;;;;;;5094464;28;20221;-32
2023/12/29 08:07:37;;;;;;;2.43;2.23;;;;;;;;;;5093654;28;20205;-33
2023/12/29 08:10:04;;;;;;;2.77;2.27;;;;;;;;;;5084714;28;20223;-32
2023/12/29 08:12:33;;;;;;;2.30;1.83;;;;;;;;;;5094047;28;20256;-30
2023/12/29 08:15:00;;;;;;;2.27;2.07;;;;;;;;;;5090800;28;20252;-30
2023/12/29 08:17:28;;;;;;;2.57;2.10;;;;;;;;;;5094255;28;20208;-34
2023/12/29 08:19:55;;;;;;;2.03;1.90;;;;;;;;;;5093692;28;20226;-36
2023/12/29 08:22:41;;;;;;;3.57;2.83;;;;;;;;;;5094026;28;20534;-35
2023/12/29 08:25:08;;;;;;;3.40;2.37;;;;;;;;;;5084610;28;20235;-33
2023/12/29 08:27:36;;;;;;;1.90;1.80;;;;;;;;;;5093813;28;20228;-32
2023/12/29 08:30:03;;;;;;;3.33;2.13;;;;;;;;;;5093257;28;20215;-31
2023/12/29 08:32:45;;;;;;;2.30;2.00;;;;;;;;;;5090235;28;20228;-33
2023/12/29 08:35:12;;;;;;;1.63;1.53;;;;;;;;;;5092237;28;20221;-34
2023/12/29 08:37:40;;;;;;;1.90;1.80;;;;;;;;;;5092653;28;20197;-34
2023/12/29 08:40:08;;;;;;;2.80;1.93;;;;;;;;;;5092510;28;20208;-31
2023/12/29 08:42:35;;;;;;;1.73;1.63;;;;;;;;;;5084573;28;20208;-34
2023/12/29 08:45:03;;;;;;;1.73;1.63;;;;;;;;;;5086423;28;20231;-30
2023/12/29 08:47:30;;;;;;;2.37;2.20;;;;;;;;;;5082621;28;20204;-34
2023/12/29 08:49:57;;;;;;;2.53;2.10;;;;;;;;;;5093149;28;20299;-35
2023/12/29 08:52:24;;;;;;;2.00;1.90;;;;;;;;;;5092559;28;20226;-38
2023/12/29 08:54:53;;;;;;;1.70;1.60;;;;;;;;;;5088120;28;20248;-33
2023/12/29 08:57:20;;;;;;;2.23;2.03;;;;;;;;;;5091582;28;20203;-39
2023/12/29 08:59:48;;;;;;;2.10;1.70;;;;;;;;;;5091885;28;20282;-35
2023/12/29 09:02:15;;;;;;;2.10;1.63;;;;;;;;;;5088451;28;20259;-30
2023/12/29 09:04:42;;;;;;;5.07;2.37;;;;;;;;;;5091433;28;20277;-31
2023/12/29 09:07:09;;;;;;;3.40;2.27;;;;;;;;;;5091369;28;20272;-37
2023/12/29 09:09:40;;;;;;;2.40;2.17;;;;;;;;;;5092111;28;20292;-35
2023/12/29 09:12:08;;;;;;;1.73;1.63;;;;;;;;;;5083752;28;20315;-34
2023/12/29 09:14:35;;;;;;;2.13;1.80;;;;;;;;;;5081980;28;20220;-38
2023/12/29 09:17:03;;;;;;;2.30;1.90;;;;;;;;;;5087155;28;20566;-34
2023/12/29 09:19:30;;;;;;;1.70;1.60;;;;;;;;;;5091843;28;20207;-37
2023/12/29 09:21:57;;;;;;;2.57;2.00;;;;;;;;;;5091202;28;20283;-32
2023/12/29 09:24:24;;;;;;;3.03;1.63;;;;;;;;;;5083653;28;20276;-37
2023/12/29 09:26:52;;;;;;;2.27;2.07;;;;;;;;;;5078516;28;20231;-33
2023/12/29 09:29:20;;;;;;;2.03;1.50;;;;;;;;;;5091789;28;20200;-33
2023/12/29 09:31:47;;;;;;;2.70;1.90;;;;;;;;;;5092810;28;20220;-33
2023/12/29 09:34:15;;;;;;;3.40;1.90;;;;;;;;;;5082004;28;20224;-36
2023/12/29 09:36:42;;;;;;;3.53;1.70;;;;;;;;;;5088698;28;20216;-34
2023/12/29 09:39:09;;;;;;;1.87;1.77;;;;;;;;;;5091564;28;20260;-37
2023/12/29 09:41:44;;;;;;;1.83;1.63;;;;;;;;;;5084947;28;20718;-36
2023/12/29 09:44:14;;;;;;;1.80;1.70;;;;;;;;;;5085107;28;20215;-35
2023/12/29 09:46:43;;;;;;;1.60;1.50;;;;;;;;;;5093050;28;20220;-33
2023/12/29 09:49:11;;;;;;;1.57;1.47;;;;;;;;;;5084623;28;20227;-40
2023/12/29 09:51:38;;;;;;;1.90;1.50;;;;;;;;;;5096756;28;20224;-33
2023/12/29 09:54:06;;;;;;;1.50;1.40;;;;;;;;;;5096113;28;20224;-37
2023/12/29 09:56:33;;;;;;;2.40;1.50;;;;;;;;;;5097179;28;20204;-36
2023/12/29 09:59:01;;;;;;;1.70;1.60;;;;;;;;;;5079750;28;20209;-35
2023/12/29 10:01:29;;;;;;;1.70;1.60;;;;;;;;;;5089171;28;20287;-34
2023/12/29 10:03:58;;;;;;;1.50;1.40;;;;;;;;;;5095595;28;20236;-32
2023/12/29 10:06:25;;;;;;;1.37;1.27;;;;;;;;;;5091948;28;20850;-35
2023/12/29 10:08:52;;;;;;;2.07;1.87;;;;;;;;;;5091632;28;20212;-33
2023/12/29 10:11:20;;;;;;;1.63;1.53;;;;;;;;;;5095099;28;20312;-29
2023/12/29 10:13:48;;;;;;;1.93;1.63;;;;;;;;;;5094219;28;20204;-34
2023/12/29 10:16:20;;;;;;;2.57;1.57;;;;;;;;;;5088772;28;20223;-34
2023/12/29 10:18:52;;;;;;;2.27;1.73;;;;;;;;;;5083950;28;20205;-34
2023/12/29 10:21:25;;;;;;;2.20;1.40;;;;;;;;;;5094865;28;20239;-33
2023/12/29 10:23:53;;;;;;;2.57;1.40;;;;;;;;;;5091517;28;20200;-33
2023/12/29 10:26:21;;;;;;;1.33;1.23;;;;;;;;;;5077016;28;20229;-35
2023/12/29 10:28:48;;;;;;;2.47;1.30;;;;;;;;;;5093184;28;20283;-30
2023/12/29 10:31:16;;;;;;;1.67;1.57;;;;;;;;;;5092635;28;20568;-34
2023/12/29 10:33:44;;;;;;;1.10;1.10;;;;;;;;;;5093160;28;20201;-37
2023/12/29 10:36:11;;;;;;;1.60;1.50;;;;;;;;;;5090307;28;20321;-32
2023/12/29 10:38:41;;;;;;;1.30;1.20;;;;;;;;;;5088227;28;20208;-33
2023/12/29 10:41:13;;;;;;;1.30;1.20;;;;;;;;;;5092561;28;20242;-31
2023/12/29 10:43:40;;;;;;;1.00;1.00;;;;;;;;;;5090286;28;20205;-35
2023/12/29 10:46:08;;;;;;;1.23;1.17;;;;;;;;;;5090054;28;20252;-32
2023/12/29 10:48:36;;;;;;;1.23;1.00;;;;;;;;;;5094664;28;20197;-31
2023/12/29 10:51:04;;;;;;;1.20;1.10;;;;;;;;;;5093648;28;20648;-30
2023/12/29 10:53:31;;;;;;;1.03;1.00;;;;;;;;;;5086106;28;20201;-36
2023/12/29 10:56:00;;;;;;;1.20;1.10;;;;;;;;;;5085446;28;20319;-33
2023/12/29 10:58:29;;;;;;;2.10;0.90;;;;;;;;;;5093719;28;20708;-30
2023/12/29 11:00:56;;;;;;;0.93;0.93;;;;;;;;;;5094282;28;20212;-34
2023/12/29 11:03:23;;;;;;;1.37;1.20;;;;;;;;;;5080468;28;20269;-37
2023/12/29 11:05:51;;;;;;;1.13;1.03;;;;;;;;;;5089687;28;20236;-33
2023/12/29 11:08:18;;;;;;;1.00;1.00;;;;;;;;;;5092822;28;20204;-37
2023/12/29 11:10:46;;;;;;;3.37;0.90;;;;;;;;;;5090284;28;20258;-35
2023/12/29 11:13:14;;;;;;;1.60;1.00;;;;;;;;;;5088429;28;20232;-33
2023/12/29 11:15:43;;;;;;;0.90;0.90;;;;;;;;;;5094193;28;20308;-36
2023/12/29 11:18:10;;;;;;;1.27;0.90;;;;;;;;;;5093873;28;20574;-33
2023/12/29 11:20:38;;;;;;;1.47;0.80;;;;;;;;;;5084967;28;20295;-34
2023/12/29 11:23:07;;;;;;;1.00;1.00;;;;;;;;;;5084343;28;20223;-33
2023/12/29 11:25:34;;;;;;;1.13;1.00;;;;;;;;;;5086422;28;20311;-37
2023/12/29 11:28:01;;;;;;;0.80;0.80;;;;;;;;;;5088580;28;20225;-30
2023/12/29 11:30:30;;;;;;;1.30;1.10;;;;;;;;;;5089275;28;20283;-36
2023/12/29 11:32:59;;;;;;;3.13;1.40;;;;;;;;;;5093409;28;20319;-34
2023/12/29 11:35:29;;;;;;;1.00;1.00;;;;;;;;;;5093458;28;20224;-35
2023/12/29 11:38:10;;;;;;;1.20;1.10;;;;;;;;;;5090640;28;20212;-34
2023/12/29 11:40:39;;;;;;;1.13;0.80;;;;;;;;;;5086125;28;20208;-31
2023/12/29 11:43:08;;;;;;;1.00;0.90;;;;;;;;;;5093463;28;20295;-31
2023/12/29 11:45:39;;;;;;;0.93;0.93;;;;;;;;;;5087339;28;20217;-35
2023/12/29 11:48:06;;;;;;;1.03;0.93;;;;;;;;;;5084823;28;20208;-31
2023/12/29 11:50:35;;;;;;;0.97;0.90;;;;;;;;;;5087458;28;20239;-35
2023/12/29 11:53:02;;;;;;;1.30;1.20;;;;;;;;;;5083289;28;20282;-34
2023/12/29 11:55:31;;;;;;;0.93;0.93;;;;;;;;;;5092251;28;20240;-32
2023/12/29 11:57:58;;;;;;;1.00;1.00;;;;;;;;;;5091559;28;20265;-36
2023/12/29 12:00:46;;;;;;;1.47;1.23;;;;;;;;;;5080123;28;20205;-36
2023/12/29 12:03:17;;;;;;;0.83;0.83;;;;;;;;;;5088805;28;20208;-34
2023/12/29 12:05:48;;;;;;;1.07;0.90;;;;;;;;;;5092303;28;20307;-35
2023/12/29 12:08:30;;;;;;;0.80;0.80;;;;;;;;;;5089022;28;20201;-32
2023/12/29 12:10:58;;;;;;;1.13;0.60;;;;;;;;;;5086616;28;20311;-34
2023/12/29 12:13:44;;;;;;;0.70;0.70;;;;;;;;;;5090766;28;20343;-29
2023/12/29 12:16:32;;;;;;;0.87;0.87;;;;;;;;;;5088619;28;20207;-31
2023/12/29 12:19:00;;;;;;;1.03;0.90;;;;;;;;;;5086826;28;20208;-32
2023/12/29 12:21:27;;;;;;;0.80;0.80;;;;;;;;;;5086202;28;20307;-34
2023/12/29 12:23:55;;;;;;;2.80;0.87;;;;;;;;;;5084722;28;20197;-33
2023/12/29 12:26:24;;;;;;;0.73;0.73;;;;;;;;;;5089675;28;20232;-32
2023/12/29 12:28:53;;;;;;;0.80;0.80;;;;;;;;;;5089695;28;20208;-34
2023/12/29 12:31:22;;;;;;;0.80;0.73;;;;;;;;;;5080031;28;20204;-36
2023/12/29 12:34:01;;;;;;;0.83;0.70;;;;;;;;;;5091211;28;20644;-33
2023/12/29 12:36:28;;;;;;;0.83;0.83;;;;;;;;;;5092035;28;20212;-31
2023/12/29 12:38:56;;;;;;;0.80;0.80;;;;;;;;;;5083384;28;20208;-32
2023/12/29 12:41:23;;;;;;;0.70;0.70;;;;;;;;;;5091410;28;20269;-34
2023/12/29 12:43:55;;;;;;;0.90;0.90;;;;;;;;;;5090500;28;20207;-37
2023/12/29 12:46:25;;;;;;;1.23;0.87;;;;;;;;;;5086756;28;20207;-33
2023/12/29 12:48:53;;;;;;;0.83;0.83;;;;;;;;;;5085111;28;20549;-30
2023/12/29 12:51:21;;;;;;;1.20;1.10;;;;;;;;;;5085441;28;20209;-31
2023/12/29 12:53:49;;;;;;;0.90;0.90;;;;;;;;;;5092881;28;20224;-30
2023/12/29 12:56:17;;;;;;;2.50;0.73;;;;;;;;;;5092312;28;20209;-28
2023/12/29 12:58:44;;;;;;;0.87;0.80;;;;;;;;;;5087562;28;20216;-33
2023/12/29 13:01:11;;;;;;;0.73;0.73;;;;;;;;;;5088685;28;20427;-31
2023/12/29 13:03:41;;;;;;;1.00;0.90;;;;;;;;;;5091132;28;20288;-35
2023/12/29 13:06:08;;;;;;;0.90;0.70;;;;;;;;;;5090996;28;20212;-32
2023/12/29 13:08:35;;;;;;;1.00;0.70;;;;;;;;;;5084321;28;20272;-30
2023/12/29 13:11:03;;;;;;;0.90;0.90;;;;;;;;;;5085745;28;20238;-31
2023/12/29 13:13:37;;;;;;;0.87;0.87;;;;;;;;;;5090454;28;20231;-30
2023/12/29 13:16:04;;;;;;;0.63;0.60;;;;;;;;;;5091281;28;20228;-36
2023/12/29 13:18:31;;;;;;;0.70;0.70;;;;;;;;;;5086456;28;20235;-34
2023/12/29 13:21:00;;;;;;;1.00;0.90;;;;;;;;;;5083667;28;20204;-32
2023/12/29 13:23:28;;;;;;;0.70;0.70;;;;;;;;;;5083722;28;20198;-36
2023/12/29 13:25:56;;;;;;;0.87;0.87;;;;;;;;;;5084768;28;20562;-36
2023/12/29 13:28:23;;;;;;;3.03;1.00;;;;;;;;;;5088002;28;20288;-34
2023/12/29 13:30:51;;;;;;;0.90;0.90;;;;;;;;;;5083216;28;20251;-32
2023/12/29 13:33:21;;;;;;;2.87;0.80;;;;;;;;;;5082585;28;20285;-31
2023/12/29 13:35:49;;;;;;;1.87;1.00;;;;;;;;;;5090981;28;20263;-38
2023/12/29 13:38:21;;;;;;;1.40;0.90;;;;;;;;;;5090962;28;20204;-33
2023/12/29 13:40:52;;;;;;;0.70;0.70;;;;;;;;;;5083950;28;20204;-35
2023/12/29 13:43:20;;;;;;;0.80;0.80;;;;;;;;;;5092693;28;20208;-34
2023/12/29 13:45:47;;;;;;;0.70;0.70;;;;;;;;;;5093229;28;20220;-37
2023/12/29 13:48:15;;;;;;;1.57;0.70;;;;;;;;;;5086664;28;20211;-34
2023/12/29 13:50:46;;;;;;;1.13;1.03;;;;;;;;;;5080594;28;20196;-33
2023/12/29 13:53:24;;;;;;;1.07;0.97;;;;;;;;;;5084775;28;20216;-34
2023/12/29 13:55:53;;;;;;;1.03;1.00;;;;;;;;;;5093830;28;20307;-33
2023/12/29 13:58:30;;;;;;;0.80;0.80;;;;;;;;;;5092326;28;20291;-38
2023/12/29 14:00:59;;;;;;;0.77;0.77;;;;;;;;;;5090377;28;20757;-32
2023/12/29 14:03:32;;;;;;;1.23;0.80;;;;;;;;;;5092330;28;20892;-34
2023/12/29 14:06:01;;;;;;;0.90;0.87;;;;;;;;;;5093465;28;20236;-35
2023/12/29 14:08:34;;;;;;;1.00;0.90;;;;;;;;;;5084561;28;20411;-32
2023/12/29 14:11:02;;;;;;;0.97;0.80;;;;;;;;;;5092540;28;20201;-32
2023/12/29 14:13:29;;;;;;;0.57;0.57;;;;;;;;;;5091594;28;20228;-35
2023/12/29 14:15:59;;;;;;;0.70;0.70;;;;;;;;;;5093688;28;20220;-30
2023/12/29 14:18:42;;;;;;;1.87;0.90;;;;;;;;;;5086137;28;20206;-31
2023/12/29 14:21:25;;;;;;;0.73;0.73;;;;;;;;;;5080769;28;20201;-35
2023/12/29 14:24:03;;;;;;;1.20;1.10;;;;;;;;;;5083709;28;20254;-32
2023/12/29 14:26:31;;;;;;;0.63;0.63;;;;;;;;;;5093408;28;20209;-30
2023/12/29 14:29:04;;;;;;;1.07;0.97;;;;;;;;;;5084747;28;20219;-36
2023/12/29 14:31:34;;;;;;;2.77;1.10;;;;;;;;;;5087238;28;20654;-36
2023/12/29 14:34:01;;;;;;;1.03;0.77;;;;;;;;;;5093765;28;20315;-36
2023/12/29 14:36:28;;;;;;;1.50;0.77;;;;;;;;;;5082536;28;20240;-32
2023/12/29 14:38:55;;;;;;;0.80;0.80;;;;;;;;;;5094842;28;20209;-37
2023/12/29 14:41:24;;;;;;;1.07;1.07;;;;;;;;;;5087539;28;20228;-32
2023/12/29 14:43:52;;;;;;;0.73;0.70;;;;;;;;;;5091782;28;20204;-32
2023/12/29 14:46:19;;;;;;;1.17;0.80;;;;;;;;;;5082320;28;20223;-35
2023/12/29 14:48:46;;;;;;;0.97;0.73;;;;;;;;;;5093830;28;20204;-33
2023/12/29 14:51:13;;;;;;;1.23;0.80;;;;;;;;;;5082907;28;20209;-31